Impacts METAR Board
IDs:

KFLL - Ft Lauderdale-Hollyw, FL, US

Updated at: 1500 UTC 03 Dec 2021
Potential Impact None Slight Moderate High
Time 03/03Z 03/04Z 03/05Z 03/06Z 03/07Z 03/08Z 03/09Z 03/10Z 03/11Z 03/12Z 03/13Z 03/14Z 03/15Z
Temp66 66 65 64 63 62 61 61 60 61 63 69 73
Dewpt63 62 62 61 59 58 56 56 53 52 53 50 45
Altim30.12 30.12 30.11 30.10 30.10 30.09 30.08 30.08 30.09 30.09 30.11 30.12 30.13
VIS10 10 10 10 10 10 10 10 10 10 10 10 10
CIG-- -- -- -- -- -- -- -- -- -- -- -- --
CoverCLRCLRCLRCLRCLRCLRCLRCLRCLRFEWFEWFEWFEW
FltCatVFRVFRVFRVFRVFRVFRVFRVFRVFRVFRVFRVFRVFR
WX--------------------------
WDir350350350350350340340330330350350350360
WSpd5 4 4 4 4 5 4 4 4 3 3 7 6
WGst-- -- -- -- -- -- -- -- -- -- -- -- --
Raw hourly METARs
KFLL 030253Z 35005KT 10SM CLR 19/17 A3012 RMK AO2 SLP200 T01890172 51006
KFLL 030353Z 35004KT 10SM CLR 19/17 A3012 RMK AO2 SLP200 T01890167
KFLL 030453Z 35004KT 10SM CLR 18/17 A3011 RMK AO2 SLP196 T01830167 402670172
KFLL 030553Z 35004KT 10SM CLR 18/16 A3010 RMK AO2 SLP192 T01780161 10217 20178 58008
KFLL 030653Z 35004KT 10SM CLR 17/15 A3010 RMK AO2 SLP191 T01720150
KFLL 030753Z 34005KT 10SM CLR 17/14 A3009 RMK AO2 SLP187 T01670144
KFLL 030853Z 34004KT 10SM CLR 16/13 A3008 RMK AO2 SLP185 T01610133 58007
KFLL 030953Z 33004KT 10SM CLR 16/13 A3008 RMK AO2 SLP184 T01610133
KFLL 031053Z 33004KT 10SM CLR 16/12 A3009 RMK AO2 SLP188 T01560117
KFLL 031153Z 35003KT 10SM FEW023 FEW250 16/11 A3009 RMK AO2 SLP188 T01610111 10178 20156 52003
KFLL 031253Z 35003KT 10SM FEW022 FEW220 17/12 A3011 RMK AO2 SLP194 T01720117
KFLL 031353Z 35007KT 10SM FEW023 FEW200 21/10 A3012 RMK AO2 SLP198 T02060100
KFLL 031453Z 36006KT 10SM FEW024 FEW220 23/07 A3013 RMK AO2 SLP201 T02280072 51014



Page loaded:  15:38 UTC  |   07:38 AM Pacific  |   08:38 AM Mountain  |   09:38 AM Central  |   10:38 AM Eastern

 

ADVISORIES

FORECASTS

FORECASTS

OBSERVATIONS

USER TOOLS

ABOUT US